Bernardo de Irigoyen, Argentina
Current Conditions -  °F | °C
As of 9:00 AM on Thursday 23 Oct 2014 (Local Time) from SARI Reporting Station
Clear Clear  
Wind Chill: 72°   Ceiling: Unl
Heat Index: 72°   Visibility: 6mi
Dew Point: 66°   Wind: 12mph
Humidity: 83%   Direction: 50°NE
Pressure: 30.09"   Gusts: NA
Location:  26.25°S, 53.65°W
Report Text: SARI 231200Z 05010KT CAVOK 22/19 Q1019
Loading
Personal Weather Stations






























Interactive Weather Map
Tropical Storm Tracking
New forecast layout! Learn more

10-Day Weather Forecast

Advertisements
Track Severe Weather on mobile